Flight Track Log - Related Links

Times and Time Zones

All times are in EDT time to prevent confusion due to time zone crossing. See the UAL4536 flight status page for this flight to view local times or setup timezone preferences in your user account.

Time Position Orientation Groundspeed Altitude Reporting Facility
EDT Latitude Longitude Course Direction KTS MPH feet Rate Location/Type
Sun 08:38:28 PM 40.6500 -74.1833 270° West 179 206 1,800  Level New York TRACON
Sun 08:39:28 PM 40.6167 -74.2500 237° Southwest 215 247 4,100 2,350 Climbing New York TRACON
Sun 08:40:28 PM 40.6167 -74.3333 270° West 257 296 6,500 2,550 Climbing New York TRACON
Sun 08:41:00 PM 40.6834 -74.6291 270° West  Level FlightAware Approximate
Sun 08:41:28 PM 40.6167 -74.4333 270° West 270 311 9,200  Level New York TRACON
Sun 08:42:00 PM 40.6834 -74.7447 270° West  Level FlightAware Approximate
Sun 08:43:00 PM 40.6834 -74.8603 270° West  Level FlightAware Approximate
Sun 08:43:50 PM 40.6444 -74.6903 278° West 320 368 12,700  Level New York Center
Sun 08:44:51 PM 40.6589 -74.8169 279° West 352 405 14,500 1,765 Climbing New York Center
Sun 08:45:49 PM 40.6714 -74.9408 278° West 352 405 16,200 1,700 Climbing New York Center
Sun 08:46:51 PM 40.6794 -75.0644 275° West 352 405 17,900 1,525 Climbing New York Center
Sun 08:47:51 PM 40.6422 -75.1689 245° Southwest 338 389 19,300 1,271 Climbing New York Center
Sun 08:48:49 PM 40.5922 -75.2806 240° Southwest 350 403 20,400 1,160 Climbing New York Center
Sun 08:49:50 PM 40.5397 -75.3944 239° Southwest 362 417 21,600 1,180 Climbing New York Center
Sun 08:50:51 PM 40.4853 -75.5108 238° Southwest 370 426 22,800 1,140 Climbing New York Center
Sun 08:51:51 PM 40.4347 -75.6247 240° Southwest 370 426 23,900 1,240 Climbing New York Center
Sun 08:52:52 PM 40.3819 -75.7381 239° Southwest 370 426 25,300 1,475 Climbing New York Center
Sun 08:53:49 PM 40.3314 -75.8489 239° Southwest 370 426 26,800 1,576 Climbing New York Center
Sun 08:54:50 PM 40.2719 -75.9697 237° Southwest 375 432 28,400 1,525 Climbing New York Center
Sun 08:55:51 PM 40.2214 -76.0747 238° Southwest 368 423 29,900 1,350 Climbing New York Center
Sun 08:56:50 PM 40.1822 -76.1586 239° Southwest 355 409 31,100 1,450 Climbing New York Center
Sun 08:57:51 PM 40.1292 -76.2683 238° Southwest 343 395 32,800 1,462 Climbing New York Center
Sun 08:58:49 PM 40.0806 -76.3706 238° Southwest 333 383 34,000 1,210 Climbing New York Center
Sun 08:59:50 PM 40.0361 -76.4728 240° Southwest 328 377 35,200 638 Climbing New York Center
Sun 09:01:57 PM 39.9358 -76.6900 239° Southwest 335 386 36,000 259 Climbing Washington Center
Sun 09:02:55 PM 39.8764 -76.8081 237° Southwest 347 399 36,000  Level Washington Center
Sun 09:03:56 PM 39.8231 -76.9289 240° Southwest 368 423 36,000  Level Washington Center
Sun 09:04:56 PM 39.7675 -77.0464 238° Southwest 380 437 36,000  Level Washington Center
Sun 09:05:57 PM 39.7075 -77.1667 237° Southwest 394 453 36,000  Level Washington Center
Sun 09:06:55 PM 39.6517 -77.2894 239° Southwest 394 453 36,000  Level Washington Center
Sun 09:07:56 PM 39.5981 -77.4067 239° Southwest 399 459 36,000  Level Washington Center
Sun 09:08:56 PM 39.5397 -77.5264 238° Southwest 399 459 36,000  Level Washington Center
Sun 09:09:57 PM 39.4836 -77.6458 239° Southwest 399 459 36,000  Level Washington Center
Sun 09:10:57 PM 39.4231 -77.7703 238° Southwest 399 459 36,000  Level Washington Center
Sun 09:11:57 PM 39.3708 -77.8922 241° Southwest 399 459 36,000  Level Washington Center
Sun 09:12:55 PM 39.3206 -78.0142 242° Southwest 394 453 36,000  Level Washington Center
Sun 09:13:55 PM 39.2719 -78.1411 244° Southwest 394 453 36,000  Level Washington Center
Sun 09:14:56 PM 39.2214 -78.2600 241° Southwest 389 448 36,000  Level Washington Center
Sun 09:15:57 PM 39.1772 -78.3708 243° Southwest 383 441 36,000  Level Washington Center
Sun 09:16:55 PM 39.1264 -78.4975 243° Southwest 383 441 36,000  Level Washington Center
Sun 09:17:56 PM 39.0858 -78.6242 248° West 388 447 36,000  Level Washington Center
Sun 09:18:56 PM 39.0697 -78.7572 261° West 383 441 36,000  Level Washington Center
Sun 09:19:57 PM 39.0517 -78.8875 260° West 378 435 36,000  Level Washington Center
Sun 09:20:55 PM 39.0333 -79.0228 260° West 378 435 36,000  Level Washington Center
Sun 09:21:56 PM 39.0169 -79.1583 261° West 378 435 36,000  Level Washington Center
Sun 09:22:57 PM 39.0003 -79.2936 261° West 391 450 36,000  Level Washington Center
Sun 09:23:57 PM 38.9814 -79.4289 260° West 391 450 36,000  Level Washington Center
Sun 09:24:57 PM 38.9647 -79.5589 261° West 391 450 36,000  Level Washington Center
Sun 09:25:55 PM 38.9447 -79.7181 261° West 399 459 36,000  Level Washington Center
Sun 09:26:56 PM 38.9258 -79.8425 259° West 405 466 36,000 -128 Level Washington Center
Sun 09:27:29 PM 38.9153 -79.9119 259° West 384 442 35,800 -632 Descending Indianapolis Center
Sun 09:28:31 PM 38.8947 -80.0464 259° West 387 445 35,000 -390 Descending Indianapolis Center
Sun 09:29:32 PM 38.8753 -80.1872 260° West 395 455 35,000  Level Indianapolis Center
Sun 09:30:34 PM 38.8558 -80.3258 260° West 395 455 35,000  Level Indianapolis Center
Sun 09:31:35 PM 38.8328 -80.4894 260° West 388 447 35,000  Level Indianapolis Center
Sun 09:32:36 PM 38.8119 -80.6256 259° West 388 447 35,000  Level Indianapolis Center
Sun 09:33:38 PM 38.7931 -80.7622 260° West 390 449 35,000 -98 Level Indianapolis Center
Sun 09:34:39 PM 38.7728 -80.8989 259° West 389 448 34,800 -639 Descending Indianapolis Center
Sun 09:35:40 PM 38.7525 -81.0347 259° West 389 448 33,700 -1,180 Descending Indianapolis Center
Sun 09:36:41 PM 38.7319 -81.1719 259° West 392 451 32,400 -1,220 Descending Indianapolis Center
Sun 09:37:43 PM 38.7117 -81.3111 259° West 395 455 31,200 -1,122 Descending Indianapolis Center
Sun 09:38:44 PM 38.6875 -81.4658 259° West 404 465 30,100 -590 Descending Indianapolis Center
Sun 09:39:45 PM 38.6667 -81.6117 260° West 414 476 30,000 -439 Descending Indianapolis Center
Sun 09:40:47 PM 38.6433 -81.7569 258° West 416 479 29,200 -927 Descending Indianapolis Center
Sun 09:41:48 PM 38.6217 -81.8992 259° West 410 472 28,100 -1,082 Descending Indianapolis Center
Sun 09:42:49 PM 38.5989 -82.0456 259° West 418 481 27,000 -1,033 Descending Indianapolis Center
Sun 09:43:50 PM 38.5753 -82.1972 259° West 431 496 26,000 -1,024 Descending Indianapolis Center
Sun 09:44:52 PM 38.5511 -82.3442 258° West 426 490 24,900 -1,073 Descending Indianapolis Center
Sun 09:45:53 PM 38.5247 -82.5092 258° West 416 479 23,800 -1,033 Descending Indianapolis Center
Sun 09:46:54 PM 38.5014 -82.6519 258° West 413 475 22,800 -1,033 Descending Indianapolis Center
Sun 09:47:55 PM 38.5008 -82.7939 270° West 399 459 21,700 -1,073 Descending Indianapolis Center
Sun 09:48:57 PM 38.5156 -82.9353 278° West 400 460 20,600 -1,024 Descending Indianapolis Center
Sun 09:49:58 PM 38.5303 -83.0692 278° West 388 447 19,600 -1,033 Descending Indianapolis Center
Sun 09:50:59 PM 38.5442 -83.2056 277° West 388 447 18,500 -984 Descending Indianapolis Center
Sun 09:52:00 PM 38.5578 -83.3419 277° West 388 447 17,600 -1,574 Descending Indianapolis Center
Sun 09:53:01 PM 38.5731 -83.4992 277° West 385 443 15,300 -2,098 Descending Indianapolis Center
Sun 09:54:03 PM 38.5864 -83.6339 277° West 382 440 13,300 -1,951 Descending Indianapolis Center
Sun 09:55:04 PM 38.5992 -83.7617 277° West 367 422 11,300 -1,574 Descending Indianapolis Center
Sun 09:56:05 PM 38.6103 -83.8858 277° West 355 409 10,100 -639 Descending Indianapolis Center
Sun 09:57:06 PM 38.6497 -83.9944 295° West 348 400 10,000 -443 Descending Indianapolis Center
Sun 09:58:07 PM 38.6953 -84.0797 304° West 300 345 9,200 -1,230 Descending Indianapolis Center
Sun 09:59:08 PM 38.7247 -84.1661 294° West 261 300 7,500 -1,377 Descending Indianapolis Center
Sun 10:00:09 PM 38.7500 -84.2517 291° West 255 293 6,400 -1,033 Descending Indianapolis Center
Sun 10:01:10 PM 38.7747 -84.3389 290° West 257 296 5,400 -689 Descending Indianapolis Center
Sun 10:02:11 PM 38.8006 -84.4233 291° West 254 292 5,000 -197 Descending Indianapolis Center
Sun 10:03:12 PM 38.8244 -84.5056 290° West 248 285 5,000 -393 Level Indianapolis Center
Sun 10:04:13 PM 38.8492 -84.5950 290° West 244 281 4,200 -836 Descending Indianapolis Center
Sun 10:05:14 PM 38.8908 -84.6567 311° West 242 278 3,300 -805 Descending Indianapolis Center
Sun 10:05:35 PM 38.9167 -84.6667 343° North 231 266 3,100 -571 Descending Cincinnati TRACON

Login

Don't have an account? Register now (free) for customized features, flight alerts, and more!